createdAt,value
2023-04-19T00:00:08.398Z,23.66
2023-04-19T00:02:38.076Z,23.68
2023-04-19T00:05:08.791Z,23.68
2023-04-19T00:07:36.773Z,23.99
2023-04-19T00:10:05.067Z,24.09
2023-04-19T00:12:33.059Z,23.80
2023-04-19T00:15:01.115Z,23.98
2023-04-19T00:17:29.237Z,23.96
2023-04-19T00:19:57.733Z,24.08
2023-04-19T00:22:27.248Z,24.09
2023-04-19T00:24:55.440Z,24.00
2023-04-19T00:27:23.562Z,24.09
2023-04-19T00:29:51.563Z,24.19
2023-04-19T00:32:19.592Z,24.03
2023-04-19T00:34:47.634Z,24.16
2023-04-19T00:37:15.673Z,24.06
2023-04-19T00:39:45.179Z,24.09
2023-04-19T00:42:13.149Z,24.36
2023-04-19T00:44:41.050Z,24.15
2023-04-19T00:49:38.719Z,24.24
2023-04-19T00:52:07.203Z,24.20
2023-04-19T00:54:41.109Z,24.34
2023-04-19T00:57:10.545Z,24.36
2023-04-19T00:59:39.565Z,24.36
2023-04-19T01:02:09.022Z,24.30
2023-04-19T01:04:37.237Z,24.38
2023-04-19T01:07:05.762Z,24.28
2023-04-19T01:09:33.658Z,24.37
2023-04-19T01:12:03.376Z,24.29
2023-04-19T01:14:32.690Z,24.24
2023-04-19T01:17:00.686Z,24.34
2023-04-19T01:19:28.716Z,24.31
2023-04-19T01:21:58.347Z,24.41
2023-04-19T01:24:28.412Z,24.50
2023-04-19T01:26:56.445Z,24.46
2023-04-19T01:29:24.499Z,24.57
2023-04-19T01:31:54.010Z,24.38
2023-04-19T01:34:23.161Z,24.64
2023-04-19T01:36:51.407Z,24.67
2023-04-19T01:39:19.433Z,24.56
2023-04-19T01:41:48.851Z,24.43
2023-04-19T01:44:16.978Z,24.52
2023-04-19T01:46:45.138Z,24.80
2023-04-19T01:49:13.939Z,24.71
2023-04-19T01:51:44.043Z,24.73
2023-04-19T01:54:12.011Z,24.60
2023-04-19T01:56:40.077Z,24.71
2023-04-19T01:59:09.365Z,24.86
2023-04-19T02:01:37.438Z,24.84
2023-04-19T02:04:05.616Z,24.69
2023-04-19T02:06:33.675Z,24.86
2023-04-19T02:09:05.499Z,24.87
2023-04-19T02:11:33.485Z,24.66
2023-04-19T02:14:01.531Z,24.69
2023-04-19T02:16:31.956Z,24.88
2023-04-19T02:19:02.438Z,24.79
2023-04-19T02:21:31.520Z,24.91
2023-04-19T02:23:59.601Z,24.76
2023-04-19T02:26:27.653Z,24.91
2023-04-19T02:28:55.589Z,24.84
2023-04-19T02:31:23.818Z,24.81
2023-04-19T02:33:53.132Z,24.75
2023-04-19T02:36:21.343Z,24.68
2023-04-19T02:38:49.321Z,24.75
2023-04-19T02:41:17.433Z,24.92
2023-04-19T02:43:45.363Z,24.90
2023-04-19T02:46:14.511Z,25.04
2023-04-19T02:48:42.522Z,24.80
2023-04-19T02:51:16.564Z,24.80
2023-04-19T02:53:44.763Z,24.94
2023-04-19T02:56:12.815Z,24.97
2023-04-19T02:58:40.814Z,25.08
2023-04-19T03:01:10.594Z,24.84
2023-04-19T03:03:38.777Z,24.95
2023-04-19T03:06:07.089Z,24.95
2023-04-19T03:08:36.589Z,25.01
2023-04-19T03:11:04.654Z,25.06
2023-04-19T03:13:32.620Z,25.09
2023-04-19T03:16:00.562Z,25.04
2023-04-19T03:18:29.760Z,24.89
2023-04-19T03:20:58.768Z,25.04
2023-04-19T03:23:31.070Z,24.99
2023-04-19T03:26:02.656Z,24.94
2023-04-19T03:28:41.410Z,24.91
2023-04-19T03:31:16.904Z,25.08
2023-04-19T03:33:46.161Z,24.96
2023-04-19T03:36:14.788Z,25.13
2023-04-19T03:38:45.436Z,25.02
2023-04-19T03:41:25.639Z,24.88
2023-04-19T03:44:13.970Z,25.06
2023-04-19T03:46:46.479Z,25.09
2023-04-19T03:49:16.719Z,24.98
2023-04-19T03:51:48.248Z,25.03
2023-04-19T03:54:16.631Z,24.95
2023-04-19T03:56:46.192Z,25.07
2023-04-19T03:59:14.396Z,25.09
2023-04-19T04:01:43.540Z,25.14
2023-04-19T04:04:12.007Z,25.09
2023-04-19T04:06:40.773Z,25.06
2023-04-19T04:09:08.814Z,25.17
2023-04-19T04:11:36.775Z,25.17
2023-04-19T04:14:06.564Z,25.22
2023-04-19T04:16:38.116Z,25.14
2023-04-19T04:19:06.381Z,25.08
2023-04-19T04:21:37.382Z,25.06
2023-04-19T04:24:07.859Z,25.14
2023-04-19T04:26:45.064Z,25.16
2023-04-19T04:29:21.152Z,25.21
2023-04-19T04:31:51.405Z,25.18
2023-04-19T04:34:24.652Z,25.26
2023-04-19T04:36:58.733Z,25.22
2023-04-19T04:39:28.224Z,25.02
2023-04-19T04:41:57.631Z,25.22
2023-04-19T04:44:27.873Z,25.16
2023-04-19T04:46:56.488Z,24.94
2023-04-19T04:49:28.381Z,24.80
2023-04-19T04:51:57.960Z,24.91
2023-04-19T04:54:28.011Z,24.59
2023-04-19T04:56:56.942Z,24.57
2023-04-19T04:59:24.957Z,24.61
2023-04-19T05:01:54.499Z,24.58
2023-04-19T05:04:22.773Z,24.57
2023-04-19T05:06:50.988Z,24.65
2023-04-19T05:09:24.394Z,24.62
2023-04-19T05:11:52.455Z,24.36
2023-04-19T05:14:20.623Z,24.45
2023-04-19T05:16:49.271Z,24.53
2023-04-19T05:19:18.697Z,24.25
2023-04-19T05:21:52.104Z,24.20
2023-04-19T05:24:20.245Z,24.20
2023-04-19T05:26:48.416Z,23.98
2023-04-19T05:29:16.476Z,23.99
2023-04-19T05:31:50.958Z,24.08
2023-04-19T05:34:25.252Z,23.68
2023-04-19T05:36:53.971Z,24.01
2023-04-19T05:39:22.288Z,24.04
2023-04-19T05:41:50.254Z,23.80
2023-04-19T05:44:18.389Z,23.92
2023-04-19T05:46:46.407Z,23.87
2023-04-19T05:49:18.996Z,23.60
2023-04-19T05:52:07.024Z,23.57
2023-04-19T05:54:46.093Z,23.74
2023-04-19T05:57:14.222Z,23.23
2023-04-19T05:59:42.274Z,23.25
2023-04-19T06:02:11.550Z,23.14
2023-04-19T06:04:39.877Z,23.40
2023-04-19T06:07:17.832Z,23.12
2023-04-19T06:09:55.231Z,23.18
2023-04-19T06:12:23.424Z,23.37
2023-04-19T06:14:51.966Z,23.18
2023-04-19T06:17:24.431Z,23.31
2023-04-19T06:19:52.718Z,23.11
2023-04-19T06:22:22.462Z,23.04
2023-04-19T06:24:50.439Z,23.17
2023-04-19T06:27:18.645Z,22.96
2023-04-19T06:29:46.797Z,22.78
2023-04-19T06:32:14.887Z,22.80
2023-04-19T06:34:42.849Z,22.78
2023-04-19T06:37:10.785Z,23.11
2023-04-19T06:39:40.223Z,22.77
2023-04-19T06:42:08.151Z,22.99
2023-04-19T06:44:36.232Z,22.97
2023-04-19T06:47:04.162Z,22.71
2023-04-19T06:49:32.748Z,23.02
2023-04-19T06:52:01.332Z,22.87
2023-04-19T06:54:29.223Z,22.70
2023-04-19T06:56:58.689Z,22.61
2023-04-19T06:59:28.321Z,22.82
2023-04-19T07:01:58.206Z,23.10
2023-04-19T07:04:27.796Z,22.98
2023-04-19T07:06:55.790Z,23.17
2023-04-19T07:09:23.718Z,23.01
2023-04-19T07:11:52.325Z,22.59
2023-04-19T07:14:21.765Z,22.71
2023-04-19T07:16:50.847Z,22.57
2023-04-19T07:19:20.642Z,22.47
2023-04-19T07:21:48.564Z,22.68
2023-04-19T07:24:17.455Z,22.77
2023-04-19T07:26:45.751Z,22.63
2023-04-19T07:29:13.765Z,22.39
2023-04-19T07:31:43.283Z,22.43
2023-04-19T07:34:11.213Z,22.31
2023-04-19T07:36:39.205Z,22.21
2023-04-19T07:39:07.299Z,22.18
2023-04-19T07:41:36.220Z,22.17
2023-04-19T07:44:04.582Z,22.19
2023-04-19T07:46:32.592Z,22.19
2023-04-19T07:49:02.060Z,22.12
2023-04-19T07:51:30.037Z,21.82
2023-04-19T07:53:58.248Z,21.88
2023-04-19T07:56:26.849Z,21.93
2023-04-19T07:59:06.976Z,21.86
2023-04-19T08:01:37.141Z,21.94
2023-04-19T08:04:06.888Z,21.91
2023-04-19T08:06:35.488Z,21.62
2023-04-19T08:09:03.720Z,22.02
2023-04-19T08:11:32.662Z,22.01
2023-04-19T08:14:09.219Z,22.38
2023-04-19T08:19:18.630Z,22.18
2023-04-19T08:21:46.570Z,22.26
2023-04-19T08:24:14.804Z,22.49
2023-04-19T08:26:43.044Z,22.57
2023-04-19T08:29:11.084Z,22.23
2023-04-19T08:31:39.367Z,22.41
2023-04-19T08:34:07.393Z,22.22
2023-04-19T08:36:41.349Z,23.38
2023-04-19T08:39:28.966Z,24.24
2023-04-19T08:42:11.117Z,25.24
2023-04-19T08:47:31.225Z,25.14
2023-04-19T08:52:47.809Z,24.91
2023-04-19T08:55:20.702Z,24.31
2023-04-19T08:57:48.889Z,24.11
2023-04-19T09:00:17.818Z,23.75
2023-04-19T09:02:48.316Z,23.54
2023-04-19T09:05:18.346Z,23.42
2023-04-19T09:07:48.518Z,22.89
2023-04-19T09:10:18.572Z,22.52
2023-04-19T09:13:02.024Z,22.38
2023-04-19T09:15:40.886Z,22.20
2023-04-19T09:18:10.827Z,22.07
2023-04-19T09:20:39.777Z,21.75
2023-04-19T09:23:12.748Z,21.58
2023-04-19T09:26:05.721Z,21.40
2023-04-19T09:28:29.571Z,21.08
2023-04-19T09:31:07.081Z,21.05
2023-04-19T09:33:40.020Z,21.03
2023-04-19T09:36:09.301Z,20.91
2023-04-19T09:38:50.021Z,20.70
2023-04-19T09:41:18.462Z,20.71
2023-04-19T09:44:02.329Z,20.70
2023-04-19T09:46:36.585Z,22.16
2023-04-19T09:49:25.280Z,22.68
2023-04-19T09:52:06.620Z,22.34
2023-04-19T09:54:36.052Z,22.15
2023-04-19T09:57:04.497Z,22.00
2023-04-19T09:59:32.629Z,21.65
2023-04-19T10:02:02.139Z,21.66
2023-04-19T10:04:44.172Z,21.54
2023-04-19T10:07:30.148Z,21.28
2023-04-19T10:10:15.985Z,21.20
2023-04-19T10:15:22.450Z,20.88
2023-04-19T10:17:50.766Z,20.76
2023-04-19T10:20:24.332Z,20.57
2023-04-19T10:22:52.702Z,20.78
2023-04-19T10:25:30.042Z,20.57
2023-04-19T10:28:00.131Z,20.48
2023-04-19T10:30:28.316Z,20.62
2023-04-19T10:32:58.518Z,20.41
2023-04-19T10:35:29.785Z,20.31
2023-04-19T10:38:08.966Z,20.34
2023-04-19T10:40:58.184Z,20.22
2023-04-19T10:43:26.924Z,20.17
2023-04-19T10:45:55.460Z,20.40
2023-04-19T10:48:38.173Z,20.12
2023-04-19T10:51:14.359Z,20.13
2023-04-19T10:53:47.582Z,20.17
2023-04-19T10:56:17.925Z,19.94
2023-04-19T10:59:21.237Z,20.38
2023-04-19T11:01:52.400Z,20.70
2023-04-19T11:04:24.380Z,20.95
2023-04-19T11:07:08.920Z,20.79
2023-04-19T11:09:39.345Z,20.76
2023-04-19T11:12:09.890Z,20.63
2023-04-19T11:14:41.294Z,20.54
2023-04-19T11:17:16.717Z,20.64
2023-04-19T11:19:46.018Z,20.60
2023-04-19T11:22:13.905Z,20.58
2023-04-19T11:24:47.342Z,20.60
2023-04-19T11:27:17.047Z,20.41
2023-04-19T11:29:45.128Z,20.34
2023-04-19T11:32:13.342Z,20.56
2023-04-19T11:34:41.911Z,20.31
2023-04-19T11:37:12.267Z,20.49
2023-04-19T11:39:47.768Z,20.17
2023-04-19T11:42:21.258Z,20.34
2023-04-19T11:44:53.148Z,20.08
2023-04-19T11:47:21.649Z,20.14
2023-04-19T11:49:49.695Z,20.20
2023-04-19T11:52:23.453Z,20.12
2023-04-19T11:54:52.555Z,20.24
2023-04-19T11:57:32.069Z,19.97
2023-04-19T12:00:11.698Z,20.02
2023-04-19T12:02:45.245Z,19.94
2023-04-19T12:05:15.630Z,20.15
2023-04-19T12:08:01.516Z,20.00
2023-04-19T12:10:29.661Z,20.09
2023-04-19T12:12:59.203Z,20.02
2023-04-19T12:15:42.888Z,20.06
2023-04-19T12:18:11.073Z,20.14
2023-04-19T12:20:40.203Z,20.12
2023-04-19T12:23:11.192Z,20.07
2023-04-19T12:25:39.241Z,19.86
2023-04-19T12:28:09.031Z,20.01
2023-04-19T12:30:37.664Z,19.70
2023-04-19T12:33:06.022Z,19.68
2023-04-19T12:35:34.841Z,20.17
2023-04-19T12:38:03.534Z,20.46
2023-04-19T12:40:31.752Z,20.47
2023-04-19T12:42:59.761Z,20.94
2023-04-19T12:45:29.377Z,21.10
2023-04-19T12:47:57.325Z,21.24
2023-04-19T12:50:25.515Z,21.28
2023-04-19T12:52:53.855Z,21.16
2023-04-19T12:55:21.960Z,21.10
2023-04-19T12:57:50.058Z,20.89
2023-04-19T13:00:18.424Z,20.75
2023-04-19T13:02:48.877Z,20.42
2023-04-19T13:05:17.024Z,20.28
2023-04-19T13:07:45.087Z,20.31
2023-04-19T13:10:13.602Z,20.17
2023-04-19T13:12:41.887Z,20.08
2023-04-19T13:15:11.185Z,19.97
2023-04-19T13:17:39.256Z,20.06
2023-04-19T13:20:10.561Z,19.76
2023-04-19T13:22:38.665Z,19.77
2023-04-19T13:25:07.397Z,19.84
2023-04-19T13:27:35.387Z,19.64
2023-04-19T13:30:03.460Z,19.67
2023-04-19T13:32:31.497Z,19.69
2023-04-19T13:34:59.486Z,19.59
2023-04-19T13:37:28.876Z,19.65
2023-04-19T13:40:06.978Z,19.72
2023-04-19T13:42:39.144Z,19.65
2023-04-19T13:45:08.254Z,19.44
2023-04-19T13:47:36.685Z,19.68
2023-04-19T13:50:05.105Z,19.39
2023-04-19T13:52:34.601Z,19.39
2023-04-19T13:55:02.591Z,19.58
2023-04-19T13:57:30.767Z,19.52
2023-04-19T13:59:58.776Z,19.48
2023-04-19T14:02:27.068Z,19.51
2023-04-19T14:04:57.008Z,19.50
2023-04-19T14:07:25.147Z,19.76
2023-04-19T14:09:54.598Z,19.59
2023-04-19T14:12:22.631Z,19.41
2023-04-19T14:14:50.505Z,19.30
2023-04-19T14:17:18.551Z,19.73
2023-04-19T14:19:46.536Z,19.36
2023-04-19T14:22:14.522Z,19.53
2023-04-19T14:24:42.646Z,19.39
2023-04-19T14:27:12.280Z,19.32
2023-04-19T14:29:40.614Z,19.53
2023-04-19T14:32:24.465Z,19.56
2023-04-19T14:34:54.697Z,19.54
2023-04-19T14:37:24.265Z,19.57
2023-04-19T14:39:52.799Z,19.37
2023-04-19T14:42:23.073Z,19.46
2023-04-19T14:44:53.010Z,19.39
2023-04-19T14:47:21.533Z,19.55
2023-04-19T14:49:49.967Z,19.53
2023-04-19T14:52:18.025Z,19.52
2023-04-19T14:54:46.140Z,19.43
2023-04-19T14:57:14.487Z,19.53
2023-04-19T14:59:43.798Z,19.53
2023-04-19T15:02:13.308Z,19.50
2023-04-19T15:04:42.309Z,19.59
2023-04-19T15:07:10.668Z,19.46
2023-04-19T15:09:38.853Z,19.47
2023-04-19T15:12:07.009Z,19.27
2023-04-19T15:14:35.186Z,19.66
2023-04-19T15:17:05.245Z,19.47
2023-04-19T15:19:33.536Z,19.56
2023-04-19T15:22:03.851Z,19.37
2023-04-19T15:24:31.966Z,19.57
2023-04-19T15:27:00.185Z,19.60
2023-04-19T15:29:28.309Z,19.87
2023-04-19T15:31:56.384Z,19.77
2023-04-19T15:34:26.061Z,19.83
2023-04-19T15:36:54.130Z,19.72
2023-04-19T15:39:22.259Z,19.83
2023-04-19T15:41:50.399Z,19.76
2023-04-19T15:44:18.448Z,19.66
2023-04-19T15:46:46.569Z,19.83
2023-04-19T15:49:14.916Z,19.84
2023-04-19T15:51:44.468Z,19.75
2023-04-19T15:54:15.906Z,19.72
2023-04-19T15:56:44.001Z,19.76
2023-04-19T15:59:12.063Z,19.50
2023-04-19T16:01:40.182Z,19.59
2023-04-19T16:04:08.393Z,19.40
2023-04-19T16:06:36.425Z,19.66
2023-04-19T16:09:06.510Z,19.39
2023-04-19T16:11:34.525Z,19.64
2023-04-19T16:14:02.544Z,19.35
2023-04-19T16:16:33.220Z,19.61
2023-04-19T16:19:01.577Z,19.52
2023-04-19T16:21:29.568Z,19.53
2023-04-19T16:23:57.815Z,19.54
2023-04-19T16:26:27.421Z,19.59
2023-04-19T16:28:55.682Z,19.60
2023-04-19T16:31:23.877Z,19.67
2023-04-19T16:33:51.908Z,19.38
2023-04-19T16:36:19.918Z,19.32
2023-04-19T16:38:47.917Z,19.21
2023-04-19T16:41:15.911Z,19.32
2023-04-19T16:43:45.757Z,19.20
2023-04-19T16:46:13.837Z,19.38
2023-04-19T16:48:41.885Z,19.27
2023-04-19T16:51:09.842Z,19.35
2023-04-19T16:53:37.891Z,19.40
2023-04-19T16:56:06.237Z,19.26
2023-04-19T16:58:34.328Z,19.59
2023-04-19T17:01:04.189Z,19.39
2023-04-19T17:03:32.469Z,19.58
2023-04-19T17:06:00.584Z,19.41
2023-04-19T17:08:28.589Z,19.58
2023-04-19T17:10:56.533Z,19.55
2023-04-19T17:13:24.489Z,19.40
2023-04-19T17:15:52.421Z,19.46
2023-04-19T17:18:22.200Z,19.26
2023-04-19T17:20:50.173Z,19.57
2023-04-19T17:23:18.329Z,19.52
2023-04-19T17:25:46.338Z,19.53
2023-04-19T17:28:14.382Z,19.41
2023-04-19T17:30:42.389Z,19.73
2023-04-19T17:33:10.917Z,19.60
2023-04-19T17:35:40.274Z,19.49
2023-04-19T17:38:08.310Z,19.80
2023-04-19T17:40:36.475Z,19.55
2023-04-19T17:43:04.460Z,19.46
2023-04-19T17:45:32.363Z,19.52
2023-04-19T17:48:01.996Z,19.67
2023-04-19T17:50:30.062Z,19.60
2023-04-19T17:52:59.398Z,19.70
2023-04-19T17:55:27.434Z,19.65
2023-04-19T17:57:55.619Z,19.54
2023-04-19T18:00:23.749Z,19.49
2023-04-19T18:02:51.830Z,19.84
2023-04-19T18:05:20.000Z,19.72
2023-04-19T18:07:47.948Z,19.70
2023-04-19T18:10:17.334Z,19.51
2023-04-19T18:12:45.251Z,19.71
2023-04-19T18:15:13.276Z,19.72
2023-04-19T18:17:41.338Z,19.60
2023-04-19T18:20:11.904Z,20.00
2023-04-19T18:22:41.923Z,20.18
2023-04-19T18:25:10.876Z,19.90
2023-04-19T18:27:40.334Z,19.84
2023-04-19T18:30:09.466Z,19.81
2023-04-19T18:32:37.580Z,19.92
2023-04-19T18:35:08.759Z,20.03
2023-04-19T18:37:36.881Z,19.88
2023-04-19T18:40:07.055Z,20.21
2023-04-19T18:42:35.199Z,20.33
2023-04-19T18:45:05.974Z,19.84
2023-04-19T18:47:34.064Z,20.14
2023-04-19T18:50:05.191Z,20.24
2023-04-19T18:52:34.271Z,20.20
2023-04-19T18:55:02.224Z,19.93
2023-04-19T18:57:34.191Z,20.11
2023-04-19T19:00:06.752Z,19.90
2023-04-19T19:02:37.149Z,20.17
2023-04-19T19:05:07.440Z,20.26
2023-04-19T19:07:37.828Z,20.42
2023-04-19T19:10:18.389Z,20.32
2023-04-19T19:12:49.052Z,20.22
2023-04-19T19:15:19.117Z,19.93
2023-04-19T19:17:49.773Z,20.37
2023-04-19T19:20:18.936Z,20.15
2023-04-19T19:22:47.033Z,20.06
2023-04-19T19:25:15.073Z,20.30
2023-04-19T19:27:58.389Z,20.44
2023-04-19T19:30:33.936Z,20.55
2023-04-19T19:33:04.542Z,20.38
2023-04-19T19:35:32.730Z,20.30
2023-04-19T19:38:00.907Z,20.22
2023-04-19T19:40:31.053Z,20.12
2023-04-19T19:43:00.319Z,20.28
2023-04-19T19:45:28.562Z,20.32
2023-04-19T19:47:59.602Z,20.30
2023-04-19T19:53:00.624Z,20.58
2023-04-19T19:55:30.011Z,20.51
2023-04-19T20:03:01.801Z,20.71
2023-04-19T20:05:30.313Z,20.71
2023-04-19T20:08:10.397Z,20.72
2023-04-19T20:10:39.373Z,20.88
2023-04-19T20:13:07.504Z,20.81
2023-04-19T20:15:36.548Z,20.53
2023-04-19T20:18:06.521Z,20.56
2023-04-19T20:20:37.179Z,20.46
2023-04-19T20:23:05.653Z,20.82
2023-04-19T20:25:33.697Z,20.80
2023-04-19T20:28:02.275Z,20.56
2023-04-19T20:30:30.348Z,20.83
2023-04-19T20:32:58.402Z,20.77
2023-04-19T20:35:28.436Z,20.65
2023-04-19T20:38:02.423Z,20.46
2023-04-19T20:40:31.869Z,20.76
2023-04-19T20:42:59.897Z,20.91
2023-04-19T20:45:28.519Z,20.85
2023-04-19T20:47:58.438Z,20.66
2023-04-19T20:50:28.236Z,20.78
2023-04-19T20:52:56.639Z,20.89
2023-04-19T20:55:25.161Z,20.56
2023-04-19T20:57:53.566Z,20.52
2023-04-19T21:00:21.785Z,20.74
2023-04-19T21:02:50.374Z,20.67
2023-04-19T21:05:18.756Z,20.62
2023-04-19T21:07:48.262Z,20.59
2023-04-19T21:10:17.318Z,20.70
2023-04-19T21:12:45.576Z,20.56
2023-04-19T21:15:13.682Z,20.66
2023-04-19T21:17:41.815Z,20.54
2023-04-19T21:20:14.229Z,20.62
2023-04-19T21:22:43.326Z,20.78
2023-04-19T21:25:14.056Z,20.59
2023-04-19T21:27:43.140Z,21.06
2023-04-19T21:30:12.326Z,20.89
2023-04-19T21:32:40.407Z,20.71
2023-04-19T21:35:09.146Z,20.90
2023-04-19T21:37:37.613Z,20.64
2023-04-19T21:40:06.646Z,20.57
2023-04-19T21:42:36.598Z,20.61
2023-04-19T21:45:05.255Z,20.88
2023-04-19T21:47:33.170Z,20.82
2023-04-19T21:50:01.120Z,20.66
2023-04-19T21:52:29.025Z,20.60
2023-04-19T21:54:57.008Z,20.79
2023-04-19T21:57:26.888Z,20.73
2023-04-19T21:59:56.276Z,20.56
2023-04-19T22:02:24.315Z,20.73
2023-04-19T22:04:52.713Z,20.74
2023-04-19T22:07:20.843Z,20.55
2023-04-19T22:09:48.845Z,20.76
2023-04-19T22:12:16.950Z,20.76
2023-04-19T22:14:46.271Z,20.92
2023-04-19T22:17:18.488Z,20.60
2023-04-19T22:19:47.671Z,20.72
2023-04-19T22:22:15.737Z,21.03
2023-04-19T22:24:56.358Z,20.89
2023-04-19T22:27:25.663Z,21.05
2023-04-19T22:29:54.175Z,20.70
2023-04-19T22:32:23.860Z,21.02
2023-04-19T22:34:51.902Z,21.09
2023-04-19T22:37:19.880Z,21.10
2023-04-19T22:39:47.882Z,21.16
2023-04-19T22:42:15.956Z,20.97
2023-04-19T22:44:43.947Z,20.77
2023-04-19T22:47:13.155Z,21.06
2023-04-19T22:49:43.481Z,20.87
2023-04-19T22:52:11.996Z,21.09
2023-04-19T22:54:39.947Z,20.95
2023-04-19T22:57:08.023Z,20.78
2023-04-19T22:59:36.164Z,21.09
2023-04-19T23:02:04.489Z,20.99
2023-04-19T23:04:35.117Z,21.13
2023-04-19T23:07:04.685Z,20.81
2023-04-19T23:09:32.631Z,20.86
2023-04-19T23:12:00.959Z,20.86
2023-04-19T23:14:29.460Z,21.20
2023-04-19T23:16:58.388Z,21.22
2023-04-19T23:19:26.409Z,20.79
2023-04-19T23:21:54.366Z,20.90
2023-04-19T23:24:23.796Z,20.98
2023-04-19T23:26:52.174Z,21.05
2023-04-19T23:29:20.263Z,20.85
2023-04-19T23:31:48.282Z,21.16
2023-04-19T23:34:16.649Z,21.19
2023-04-19T23:36:44.611Z,21.27
2023-04-19T23:39:12.957Z,20.96
2023-04-19T23:41:43.557Z,21.19
2023-04-19T23:44:11.652Z,21.33
2023-04-19T23:46:39.812Z,21.30
2023-04-19T23:49:08.699Z,21.05
2023-04-19T23:51:37.405Z,21.21
2023-04-19T23:54:05.704Z,21.03
2023-04-19T23:56:33.734Z,21.29
2023-04-19T23:59:03.164Z,21.06
